sensor_id;sensor_type;location;lat;lon;timestamp;P1;durP1;ratioP1;P2;durP2;ratioP2
7665;SDS011;3875;46.562;4.898;2023-07-13T00:00:11;5.30;;;1.60;;
7665;SDS011;3875;46.562;4.898;2023-07-13T00:02:40;4.57;;;1.67;;
7665;SDS011;3875;46.562;4.898;2023-07-13T00:05:06;2.30;;;1.60;;
7665;SDS011;3875;46.562;4.898;2023-07-13T00:07:32;3.00;;;1.43;;
7665;SDS011;3875;46.562;4.898;2023-07-13T00:09:58;3.30;;;1.50;;
7665;SDS011;3875;46.562;4.898;2023-07-13T00:14:53;3.33;;;1.80;;
7665;SDS011;3875;46.562;4.898;2023-07-13T00:17:24;6.53;;;1.90;;
7665;SDS011;3875;46.562;4.898;2023-07-13T00:19:50;1.80;;;1.30;;
7665;SDS011;3875;46.562;4.898;2023-07-13T00:22:16;2.47;;;1.50;;
7665;SDS011;3875;46.562;4.898;2023-07-13T00:24:43;2.47;;;1.70;;
7665;SDS011;3875;46.562;4.898;2023-07-13T00:27:12;2.27;;;1.77;;
7665;SDS011;3875;46.562;4.898;2023-07-13T00:29:38;3.60;;;1.97;;
7665;SDS011;3875;46.562;4.898;2023-07-13T00:32:04;3.83;;;1.63;;
7665;SDS011;3875;46.562;4.898;2023-07-13T00:34:31;2.63;;;1.73;;
7665;SDS011;3875;46.562;4.898;2023-07-13T00:36:57;4.77;;;1.83;;
7665;SDS011;3875;46.562;4.898;2023-07-13T00:39:24;2.03;;;1.60;;
7665;SDS011;3875;46.562;4.898;2023-07-13T00:41:50;2.77;;;1.67;;
7665;SDS011;3875;46.562;4.898;2023-07-13T00:44:19;3.97;;;1.87;;
7665;SDS011;3875;46.562;4.898;2023-07-13T00:46:48;3.80;;;1.63;;
7665;SDS011;3875;46.562;4.898;2023-07-13T00:49:15;2.63;;;1.83;;
7665;SDS011;3875;46.562;4.898;2023-07-13T00:52:08;3.47;;;1.50;;
7665;SDS011;3875;46.562;4.898;2023-07-13T00:54:34;2.80;;;1.70;;
7665;SDS011;3875;46.562;4.898;2023-07-13T00:57:12;4.53;;;1.87;;
7665;SDS011;3875;46.562;4.898;2023-07-13T00:59:42;4.07;;;2.03;;
7665;SDS011;3875;46.562;4.898;2023-07-13T01:02:10;2.53;;;1.80;;
7665;SDS011;3875;46.562;4.898;2023-07-13T01:04:36;3.20;;;1.93;;
7665;SDS011;3875;46.562;4.898;2023-07-13T01:07:03;4.73;;;1.60;;
7665;SDS011;3875;46.562;4.898;2023-07-13T01:09:31;2.07;;;1.67;;
7665;SDS011;3875;46.562;4.898;2023-07-13T01:11:56;5.17;;;1.87;;
7665;SDS011;3875;46.562;4.898;2023-07-13T01:14:22;4.93;;;2.13;;
7665;SDS011;3875;46.562;4.898;2023-07-13T01:16:48;6.57;;;1.97;;
7665;SDS011;3875;46.562;4.898;2023-07-13T01:21:55;3.27;;;1.57;;
7665;SDS011;3875;46.562;4.898;2023-07-13T01:24:20;6.67;;;1.93;;
7665;SDS011;3875;46.562;4.898;2023-07-13T01:26:46;1.93;;;1.60;;
7665;SDS011;3875;46.562;4.898;2023-07-13T01:29:12;1.90;;;1.40;;
7665;SDS011;3875;46.562;4.898;2023-07-13T01:31:37;4.47;;;1.43;;
7665;SDS011;3875;46.562;4.898;2023-07-13T01:34:03;2.50;;;1.37;;
7665;SDS011;3875;46.562;4.898;2023-07-13T01:36:30;3.17;;;1.50;;
7665;SDS011;3875;46.562;4.898;2023-07-13T01:38:56;2.87;;;1.60;;
7665;SDS011;3875;46.562;4.898;2023-07-13T01:41:21;8.63;;;1.60;;
7665;SDS011;3875;46.562;4.898;2023-07-13T01:43:47;6.30;;;1.60;;
7665;SDS011;3875;46.562;4.898;2023-07-13T01:46:15;2.73;;;1.30;;
7665;SDS011;3875;46.562;4.898;2023-07-13T01:48:41;8.03;;;1.63;;
7665;SDS011;3875;46.562;4.898;2023-07-13T01:51:06;4.50;;;1.90;;
7665;SDS011;3875;46.562;4.898;2023-07-13T01:53:32;4.53;;;1.27;;
7665;SDS011;3875;46.562;4.898;2023-07-13T01:56:00;3.27;;;1.73;;
7665;SDS011;3875;46.562;4.898;2023-07-13T01:58:25;3.13;;;1.70;;
7665;SDS011;3875;46.562;4.898;2023-07-13T02:00:51;2.90;;;1.50;;
7665;SDS011;3875;46.562;4.898;2023-07-13T02:03:17;2.87;;;1.40;;
7665;SDS011;3875;46.562;4.898;2023-07-13T02:05:44;3.97;;;1.40;;
7665;SDS011;3875;46.562;4.898;2023-07-13T02:08:10;3.47;;;1.63;;
7665;SDS011;3875;46.562;4.898;2023-07-13T02:10:36;4.00;;;1.70;;
7665;SDS011;3875;46.562;4.898;2023-07-13T02:13:04;2.67;;;1.40;;
7665;SDS011;3875;46.562;4.898;2023-07-13T02:15:31;4.53;;;1.70;;
7665;SDS011;3875;46.562;4.898;2023-07-13T02:17:57;3.93;;;1.60;;
7665;SDS011;3875;46.562;4.898;2023-07-13T02:20:23;1.60;;;1.37;;
7665;SDS011;3875;46.562;4.898;2023-07-13T02:22:49;3.33;;;1.53;;
7665;SDS011;3875;46.562;4.898;2023-07-13T02:25:15;2.13;;;1.60;;
7665;SDS011;3875;46.562;4.898;2023-07-13T02:27:41;6.17;;;1.50;;
7665;SDS011;3875;46.562;4.898;2023-07-13T02:30:07;4.90;;;1.93;;
7665;SDS011;3875;46.562;4.898;2023-07-13T02:32:33;4.60;;;1.73;;
7665;SDS011;3875;46.562;4.898;2023-07-13T02:34:59;4.53;;;1.60;;
7665;SDS011;3875;46.562;4.898;2023-07-13T02:37:25;4.30;;;1.80;;
7665;SDS011;3875;46.562;4.898;2023-07-13T02:39:51;3.33;;;1.80;;
7665;SDS011;3875;46.562;4.898;2023-07-13T02:42:16;4.17;;;1.73;;
7665;SDS011;3875;46.562;4.898;2023-07-13T02:44:42;1.67;;;1.37;;
7665;SDS011;3875;46.562;4.898;2023-07-13T02:47:11;1.60;;;1.40;;
7665;SDS011;3875;46.562;4.898;2023-07-13T02:49:38;3.67;;;1.80;;
7665;SDS011;3875;46.562;4.898;2023-07-13T02:52:04;2.07;;;1.53;;
7665;SDS011;3875;46.562;4.898;2023-07-13T02:54:30;3.13;;;1.50;;
7665;SDS011;3875;46.562;4.898;2023-07-13T02:56:56;2.00;;;1.47;;
7665;SDS011;3875;46.562;4.898;2023-07-13T02:59:21;4.13;;;1.60;;
7665;SDS011;3875;46.562;4.898;2023-07-13T03:01:47;5.87;;;1.60;;
7665;SDS011;3875;46.562;4.898;2023-07-13T03:04:13;6.87;;;1.50;;
7665;SDS011;3875;46.562;4.898;2023-07-13T03:06:38;3.23;;;2.00;;
7665;SDS011;3875;46.562;4.898;2023-07-13T03:09:04;7.73;;;1.93;;
7665;SDS011;3875;46.562;4.898;2023-07-13T03:11:30;3.00;;;1.80;;
7665;SDS011;3875;46.562;4.898;2023-07-13T03:13:56;2.13;;;1.40;;
7665;SDS011;3875;46.562;4.898;2023-07-13T03:16:22;2.70;;;1.63;;
7665;SDS011;3875;46.562;4.898;2023-07-13T03:18:48;4.13;;;1.73;;
7665;SDS011;3875;46.562;4.898;2023-07-13T03:21:14;2.90;;;1.73;;
7665;SDS011;3875;46.562;4.898;2023-07-13T03:23:40;7.13;;;2.50;;
7665;SDS011;3875;46.562;4.898;2023-07-13T03:26:13;5.43;;;1.97;;
7665;SDS011;3875;46.562;4.898;2023-07-13T03:28:41;4.00;;;1.63;;
7665;SDS011;3875;46.562;4.898;2023-07-13T03:31:09;7.30;;;1.80;;
7665;SDS011;3875;46.562;4.898;2023-07-13T03:33:39;6.57;;;1.87;;
7665;SDS011;3875;46.562;4.898;2023-07-13T03:36:06;2.53;;;1.70;;
7665;SDS011;3875;46.562;4.898;2023-07-13T03:38:34;2.90;;;1.67;;
7665;SDS011;3875;46.562;4.898;2023-07-13T03:41:00;1.70;;;1.60;;
7665;SDS011;3875;46.562;4.898;2023-07-13T03:43:26;2.93;;;1.70;;
7665;SDS011;3875;46.562;4.898;2023-07-13T03:45:52;4.60;;;1.80;;
7665;SDS011;3875;46.562;4.898;2023-07-13T03:48:17;1.73;;;1.63;;
7665;SDS011;3875;46.562;4.898;2023-07-13T03:50:43;3.67;;;2.10;;
7665;SDS011;3875;46.562;4.898;2023-07-13T03:53:09;5.80;;;1.80;;
7665;SDS011;3875;46.562;4.898;2023-07-13T03:55:34;2.80;;;1.93;;
7665;SDS011;3875;46.562;4.898;2023-07-13T03:58:46;2.50;;;1.83;;
7665;SDS011;3875;46.562;4.898;2023-07-13T04:00:59;2.47;;;1.60;;
7665;SDS011;3875;46.562;4.898;2023-07-13T04:03:26;2.40;;;1.67;;
7665;SDS011;3875;46.562;4.898;2023-07-13T04:05:53;4.40;;;1.80;;
7665;SDS011;3875;46.562;4.898;2023-07-13T04:08:20;2.60;;;1.53;;
7665;SDS011;3875;46.562;4.898;2023-07-13T04:10:45;7.70;;;1.57;;
7665;SDS011;3875;46.562;4.898;2023-07-13T04:13:11;9.47;;;1.60;;
7665;SDS011;3875;46.562;4.898;2023-07-13T04:15:37;4.10;;;1.80;;
7665;SDS011;3875;46.562;4.898;2023-07-13T04:18:04;5.57;;;1.77;;
7665;SDS011;3875;46.562;4.898;2023-07-13T04:20:29;5.03;;;2.10;;
7665;SDS011;3875;46.562;4.898;2023-07-13T04:22:55;4.63;;;1.87;;
7665;SDS011;3875;46.562;4.898;2023-07-13T04:25:22;3.20;;;1.87;;
7665;SDS011;3875;46.562;4.898;2023-07-13T04:27:49;3.57;;;2.10;;
7665;SDS011;3875;46.562;4.898;2023-07-13T04:30:15;2.60;;;1.80;;
7665;SDS011;3875;46.562;4.898;2023-07-13T04:32:40;4.10;;;1.93;;
7665;SDS011;3875;46.562;4.898;2023-07-13T04:35:06;2.87;;;2.00;;
7665;SDS011;3875;46.562;4.898;2023-07-13T04:37:32;3.70;;;2.20;;
7665;SDS011;3875;46.562;4.898;2023-07-13T04:39:58;4.63;;;1.80;;
7665;SDS011;3875;46.562;4.898;2023-07-13T04:42:24;4.17;;;2.13;;
7665;SDS011;3875;46.562;4.898;2023-07-13T04:44:50;4.43;;;1.70;;
7665;SDS011;3875;46.562;4.898;2023-07-13T04:47:17;3.03;;;2.23;;
7665;SDS011;3875;46.562;4.898;2023-07-13T04:49:44;2.57;;;1.80;;
7665;SDS011;3875;46.562;4.898;2023-07-13T04:52:13;2.70;;;1.90;;
7665;SDS011;3875;46.562;4.898;2023-07-13T04:54:39;9.93;;;1.80;;
7665;SDS011;3875;46.562;4.898;2023-07-13T04:57:06;6.03;;;1.80;;
7665;SDS011;3875;46.562;4.898;2023-07-13T04:59:33;5.10;;;2.47;;
7665;SDS011;3875;46.562;4.898;2023-07-13T05:02:00;4.70;;;1.80;;
7665;SDS011;3875;46.562;4.898;2023-07-13T05:04:29;4.80;;;2.13;;
7665;SDS011;3875;46.562;4.898;2023-07-13T05:06:58;4.87;;;2.00;;
7665;SDS011;3875;46.562;4.898;2023-07-13T05:09:25;4.37;;;1.80;;
7665;SDS011;3875;46.562;4.898;2023-07-13T05:11:52;3.40;;;2.00;;
7665;SDS011;3875;46.562;4.898;2023-07-13T05:14:19;3.90;;;1.97;;
7665;SDS011;3875;46.562;4.898;2023-07-13T05:16:45;5.87;;;1.97;;
7665;SDS011;3875;46.562;4.898;2023-07-13T05:19:11;3.00;;;1.90;;
7665;SDS011;3875;46.562;4.898;2023-07-13T05:21:38;2.90;;;1.77;;
7665;SDS011;3875;46.562;4.898;2023-07-13T05:24:04;4.33;;;1.90;;
7665;SDS011;3875;46.562;4.898;2023-07-13T05:26:29;3.53;;;1.80;;
7665;SDS011;3875;46.562;4.898;2023-07-13T05:28:55;5.23;;;1.90;;
7665;SDS011;3875;46.562;4.898;2023-07-13T05:31:21;3.43;;;1.70;;
7665;SDS011;3875;46.562;4.898;2023-07-13T05:33:46;5.60;;;2.00;;
7665;SDS011;3875;46.562;4.898;2023-07-13T05:36:12;4.73;;;1.70;;
7665;SDS011;3875;46.562;4.898;2023-07-13T05:38:38;3.33;;;1.67;;
7665;SDS011;3875;46.562;4.898;2023-07-13T05:41:03;5.60;;;2.17;;
7665;SDS011;3875;46.562;4.898;2023-07-13T05:43:29;4.60;;;2.17;;
7665;SDS011;3875;46.562;4.898;2023-07-13T05:45:55;3.43;;;1.80;;
7665;SDS011;3875;46.562;4.898;2023-07-13T05:48:22;3.33;;;2.13;;
7665;SDS011;3875;46.562;4.898;2023-07-13T05:50:48;7.00;;;1.87;;
7665;SDS011;3875;46.562;4.898;2023-07-13T05:53:14;3.47;;;2.03;;
7665;SDS011;3875;46.562;4.898;2023-07-13T05:55:41;3.33;;;1.90;;
7665;SDS011;3875;46.562;4.898;2023-07-13T05:58:12;2.77;;;2.03;;
7665;SDS011;3875;46.562;4.898;2023-07-13T06:00:39;4.53;;;2.53;;
7665;SDS011;3875;46.562;4.898;2023-07-13T06:03:05;8.83;;;2.13;;
7665;SDS011;3875;46.562;4.898;2023-07-13T06:05:31;4.20;;;2.00;;
7665;SDS011;3875;46.562;4.898;2023-07-13T06:07:58;3.40;;;2.00;;
7665;SDS011;3875;46.562;4.898;2023-07-13T06:10:24;10.00;;;2.90;;
7665;SDS011;3875;46.562;4.898;2023-07-13T06:12:50;4.63;;;2.10;;
7665;SDS011;3875;46.562;4.898;2023-07-13T06:15:16;4.70;;;2.53;;
7665;SDS011;3875;46.562;4.898;2023-07-13T06:17:42;9.27;;;2.40;;
7665;SDS011;3875;46.562;4.898;2023-07-13T06:20:08;3.73;;;2.20;;
7665;SDS011;3875;46.562;4.898;2023-07-13T06:22:34;5.07;;;2.00;;
7665;SDS011;3875;46.562;4.898;2023-07-13T06:25:00;5.33;;;1.97;;
7665;SDS011;3875;46.562;4.898;2023-07-13T06:27:26;3.37;;;1.80;;
7665;SDS011;3875;46.562;4.898;2023-07-13T06:29:51;4.30;;;1.87;;
7665;SDS011;3875;46.562;4.898;2023-07-13T06:32:17;5.13;;;1.97;;
7665;SDS011;3875;46.562;4.898;2023-07-13T06:34:43;6.37;;;2.20;;
7665;SDS011;3875;46.562;4.898;2023-07-13T06:37:09;7.93;;;2.53;;
7665;SDS011;3875;46.562;4.898;2023-07-13T06:39:35;4.43;;;2.10;;
7665;SDS011;3875;46.562;4.898;2023-07-13T06:42:01;3.40;;;1.90;;
7665;SDS011;3875;46.562;4.898;2023-07-13T06:44:27;6.10;;;2.70;;
7665;SDS011;3875;46.562;4.898;2023-07-13T06:46:52;2.37;;;1.90;;
7665;SDS011;3875;46.562;4.898;2023-07-13T06:49:18;5.20;;;2.23;;
7665;SDS011;3875;46.562;4.898;2023-07-13T06:51:44;4.43;;;2.07;;
7665;SDS011;3875;46.562;4.898;2023-07-13T06:54:09;3.93;;;2.00;;
7665;SDS011;3875;46.562;4.898;2023-07-13T06:56:35;3.23;;;1.80;;
7665;SDS011;3875;46.562;4.898;2023-07-13T06:59:01;3.75;;;1.77;;
7665;SDS011;3875;46.562;4.898;2023-07-13T07:01:26;6.03;;;2.23;;
7665;SDS011;3875;46.562;4.898;2023-07-13T07:03:52;4.28;;;2.00;;
7665;SDS011;3875;46.562;4.898;2023-07-13T07:06:19;5.30;;;2.27;;
7665;SDS011;3875;46.562;4.898;2023-07-13T07:08:46;9.57;;;2.20;;
7665;SDS011;3875;46.562;4.898;2023-07-13T07:11:13;5.43;;;1.83;;
7665;SDS011;3875;46.562;4.898;2023-07-13T07:13:41;8.23;;;2.10;;
7665;SDS011;3875;46.562;4.898;2023-07-13T07:16:07;2.47;;;1.57;;
7665;SDS011;3875;46.562;4.898;2023-07-13T07:18:33;4.33;;;2.20;;
7665;SDS011;3875;46.562;4.898;2023-07-13T07:20:59;9.27;;;2.43;;
7665;SDS011;3875;46.562;4.898;2023-07-13T07:23:25;3.07;;;1.97;;
7665;SDS011;3875;46.562;4.898;2023-07-13T07:25:51;4.00;;;1.97;;
7665;SDS011;3875;46.562;4.898;2023-07-13T07:28:17;5.23;;;2.43;;
7665;SDS011;3875;46.562;4.898;2023-07-13T07:30:44;2.90;;;1.77;;
7665;SDS011;3875;46.562;4.898;2023-07-13T07:33:10;5.07;;;2.30;;
7665;SDS011;3875;46.562;4.898;2023-07-13T07:35:36;4.93;;;2.27;;
7665;SDS011;3875;46.562;4.898;2023-07-13T07:38:01;3.90;;;2.20;;
7665;SDS011;3875;46.562;4.898;2023-07-13T07:40:27;6.70;;;2.03;;
7665;SDS011;3875;46.562;4.898;2023-07-13T07:42:53;4.17;;;1.90;;
7665;SDS011;3875;46.562;4.898;2023-07-13T07:45:19;2.63;;;1.80;;
7665;SDS011;3875;46.562;4.898;2023-07-13T07:47:45;3.93;;;1.83;;
7665;SDS011;3875;46.562;4.898;2023-07-13T07:50:11;5.97;;;2.20;;
7665;SDS011;3875;46.562;4.898;2023-07-13T07:52:37;4.28;;;2.00;;
7665;SDS011;3875;46.562;4.898;2023-07-13T07:55:04;5.93;;;1.93;;
7665;SDS011;3875;46.562;4.898;2023-07-13T07:57:31;5.43;;;1.90;;
7665;SDS011;3875;46.562;4.898;2023-07-13T07:59:56;3.53;;;1.97;;
7665;SDS011;3875;46.562;4.898;2023-07-13T08:02:22;4.10;;;2.10;;
7665;SDS011;3875;46.562;4.898;2023-07-13T08:04:49;4.10;;;1.97;;
7665;SDS011;3875;46.562;4.898;2023-07-13T08:07:15;4.93;;;2.07;;
7665;SDS011;3875;46.562;4.898;2023-07-13T08:09:41;8.32;;;2.17;;
7665;SDS011;3875;46.562;4.898;2023-07-13T08:12:09;4.43;;;1.93;;
7665;SDS011;3875;46.562;4.898;2023-07-13T08:14:35;3.23;;;1.80;;
7665;SDS011;3875;46.562;4.898;2023-07-13T08:17:03;3.17;;;1.90;;
7665;SDS011;3875;46.562;4.898;2023-07-13T08:19:30;4.17;;;2.07;;
7665;SDS011;3875;46.562;4.898;2023-07-13T08:21:55;1.93;;;1.67;;
7665;SDS011;3875;46.562;4.898;2023-07-13T08:24:22;3.47;;;2.13;;
7665;SDS011;3875;46.562;4.898;2023-07-13T08:26:48;3.73;;;2.30;;
7665;SDS011;3875;46.562;4.898;2023-07-13T08:29:15;3.50;;;2.00;;
7665;SDS011;3875;46.562;4.898;2023-07-13T08:31:41;7.17;;;1.90;;
7665;SDS011;3875;46.562;4.898;2023-07-13T08:34:06;4.53;;;2.03;;
7665;SDS011;3875;46.562;4.898;2023-07-13T08:36:32;4.33;;;2.20;;
7665;SDS011;3875;46.562;4.898;2023-07-13T08:38:58;3.67;;;2.10;;
7665;SDS011;3875;46.562;4.898;2023-07-13T08:41:23;4.47;;;2.27;;
7665;SDS011;3875;46.562;4.898;2023-07-13T08:43:54;3.33;;;2.00;;
7665;SDS011;3875;46.562;4.898;2023-07-13T08:46:25;2.77;;;1.97;;
7665;SDS011;3875;46.562;4.898;2023-07-13T08:48:56;2.83;;;1.70;;
7665;SDS011;3875;46.562;4.898;2023-07-13T08:51:45;4.57;;;2.00;;
7665;SDS011;3875;46.562;4.898;2023-07-13T08:54:22;3.30;;;2.00;;
7665;SDS011;3875;46.562;4.898;2023-07-13T08:56:55;7.20;;;1.70;;
7665;SDS011;3875;46.562;4.898;2023-07-13T08:59:25;2.97;;;1.92;;
7665;SDS011;3875;46.562;4.898;2023-07-13T09:04:27;6.23;;;2.00;;
7665;SDS011;3875;46.562;4.898;2023-07-13T09:07:06;6.77;;;2.20;;
7665;SDS011;3875;46.562;4.898;2023-07-13T09:12:39;2.97;;;1.73;;
7665;SDS011;3875;46.562;4.898;2023-07-13T09:15:05;3.27;;;1.83;;
7665;SDS011;3875;46.562;4.898;2023-07-13T09:18:19;2.80;;;1.67;;
7665;SDS011;3875;46.562;4.898;2023-07-13T09:20:58;5.13;;;1.70;;
7665;SDS011;3875;46.562;4.898;2023-07-13T09:23:28;3.40;;;1.40;;
7665;SDS011;3875;46.562;4.898;2023-07-13T09:26:02;3.60;;;1.50;;
7665;SDS011;3875;46.562;4.898;2023-07-13T09:28:46;4.27;;;1.80;;
7665;SDS011;3875;46.562;4.898;2023-07-13T09:31:23;3.83;;;1.90;;
7665;SDS011;3875;46.562;4.898;2023-07-13T09:33:59;3.00;;;1.50;;
7665;SDS011;3875;46.562;4.898;2023-07-13T09:36:27;1.77;;;1.43;;
7665;SDS011;3875;46.562;4.898;2023-07-13T09:39:05;6.30;;;1.80;;
7665;SDS011;3875;46.562;4.898;2023-07-13T09:44:51;3.83;;;1.70;;
7665;SDS011;3875;46.562;4.898;2023-07-13T09:49:54;5.70;;;2.00;;
7665;SDS011;3875;46.562;4.898;2023-07-13T09:52:28;5.30;;;1.60;;
7665;SDS011;3875;46.562;4.898;2023-07-13T09:55:51;4.60;;;1.50;;
7665;SDS011;3875;46.562;4.898;2023-07-13T09:57:52;4.67;;;1.60;;
7665;SDS011;3875;46.562;4.898;2023-07-13T10:00:23;2.53;;;1.50;;
7665;SDS011;3875;46.562;4.898;2023-07-13T10:02:58;5.23;;;1.70;;
7665;SDS011;3875;46.562;4.898;2023-07-13T10:05:25;3.73;;;1.50;;
7665;SDS011;3875;46.562;4.898;2023-07-13T10:07:51;3.73;;;1.60;;
7665;SDS011;3875;46.562;4.898;2023-07-13T10:10:21;2.50;;;1.67;;
7665;SDS011;3875;46.562;4.898;2023-07-13T10:12:48;2.97;;;1.67;;
7665;SDS011;3875;46.562;4.898;2023-07-13T10:15:15;2.73;;;1.50;;
7665;SDS011;3875;46.562;4.898;2023-07-13T10:17:44;4.83;;;1.57;;
7665;SDS011;3875;46.562;4.898;2023-07-13T10:20:11;4.17;;;1.70;;
7665;SDS011;3875;46.562;4.898;2023-07-13T10:25:27;2.93;;;1.80;;
7665;SDS011;3875;46.562;4.898;2023-07-13T10:27:58;2.80;;;1.67;;
7665;SDS011;3875;46.562;4.898;2023-07-13T10:30:35;4.37;;;1.77;;
7665;SDS011;3875;46.562;4.898;2023-07-13T10:33:09;2.37;;;1.80;;
7665;SDS011;3875;46.562;4.898;2023-07-13T10:35:36;2.03;;;1.57;;
7665;SDS011;3875;46.562;4.898;2023-07-13T10:38:15;4.07;;;1.40;;
7665;SDS011;3875;46.562;4.898;2023-07-13T10:43:22;1.97;;;1.50;;
7665;SDS011;3875;46.562;4.898;2023-07-13T10:45:56;2.90;;;1.40;;
7665;SDS011;3875;46.562;4.898;2023-07-13T10:48:24;7.03;;;1.70;;
7665;SDS011;3875;46.562;4.898;2023-07-13T10:50:51;2.95;;;1.58;;
7665;SDS011;3875;46.562;4.898;2023-07-13T10:53:21;3.35;;;1.65;;
7665;SDS011;3875;46.562;4.898;2023-07-13T10:55:58;3.22;;;1.65;;
7665;SDS011;3875;46.562;4.898;2023-07-13T11:03:47;2.13;;;1.52;;
7665;SDS011;3875;46.562;4.898;2023-07-13T11:06:17;3.67;;;1.90;;
7665;SDS011;3875;46.562;4.898;2023-07-13T11:08:58;2.42;;;1.70;;
7665;SDS011;3875;46.562;4.898;2023-07-13T11:11:42;3.60;;;1.70;;
7665;SDS011;3875;46.562;4.898;2023-07-13T11:16:54;3.17;;;1.48;;
7665;SDS011;3875;46.562;4.898;2023-07-13T11:27:46;2.35;;;1.60;;
7665;SDS011;3875;46.562;4.898;2023-07-13T11:32:51;4.25;;;1.55;;
7665;SDS011;3875;46.562;4.898;2023-07-13T11:38:30;2.22;;;1.50;;
7665;SDS011;3875;46.562;4.898;2023-07-13T11:41:02;3.33;;;1.88;;
7665;SDS011;3875;46.562;4.898;2023-07-13T11:43:32;3.90;;;1.70;;
7665;SDS011;3875;46.562;4.898;2023-07-13T11:46:11;1.73;;;1.60;;
7665;SDS011;3875;46.562;4.898;2023-07-13T11:48:38;4.03;;;2.30;;
7665;SDS011;3875;46.562;4.898;2023-07-13T11:51:05;14.13;;;1.67;;
7665;SDS011;3875;46.562;4.898;2023-07-13T11:53:39;2.33;;;1.25;;
7665;SDS011;3875;46.562;4.898;2023-07-13T11:56:10;3.53;;;1.50;;
7665;SDS011;3875;46.562;4.898;2023-07-13T11:58:36;3.08;;;1.30;;
7665;SDS011;3875;46.562;4.898;2023-07-13T12:01:02;3.13;;;1.42;;
7665;SDS011;3875;46.562;4.898;2023-07-13T12:03:32;1.83;;;1.30;;
7665;SDS011;3875;46.562;4.898;2023-07-13T12:06:06;4.50;;;1.10;;
7665;SDS011;3875;46.562;4.898;2023-07-13T12:08:56;2.70;;;1.77;;
7665;SDS011;3875;46.562;4.898;2023-07-13T12:11:23;2.90;;;1.40;;
7665;SDS011;3875;46.562;4.898;2023-07-13T12:13:49;2.47;;;1.30;;
7665;SDS011;3875;46.562;4.898;2023-07-13T12:16:16;3.40;;;1.85;;
7665;SDS011;3875;46.562;4.898;2023-07-13T12:18:49;3.00;;;1.25;;
7665;SDS011;3875;46.562;4.898;2023-07-13T12:21:18;2.58;;;1.30;;
7665;SDS011;3875;46.562;4.898;2023-07-13T12:23:47;1.40;;;1.17;;
7665;SDS011;3875;46.562;4.898;2023-07-13T12:26:14;4.13;;;1.50;;
7665;SDS011;3875;46.562;4.898;2023-07-13T12:28:51;2.05;;;1.30;;
7665;SDS011;3875;46.562;4.898;2023-07-13T12:31:35;1.73;;;1.50;;
7665;SDS011;3875;46.562;4.898;2023-07-13T12:34:10;3.15;;;1.50;;
7665;SDS011;3875;46.562;4.898;2023-07-13T12:36:38;5.38;;;1.40;;
7665;SDS011;3875;46.562;4.898;2023-07-13T12:39:33;6.07;;;1.80;;
7665;SDS011;3875;46.562;4.898;2023-07-13T12:45:02;2.17;;;1.23;;
7665;SDS011;3875;46.562;4.898;2023-07-13T12:47:44;3.42;;;1.42;;
7665;SDS011;3875;46.562;4.898;2023-07-13T12:50:21;1.40;;;1.30;;
7665;SDS011;3875;46.562;4.898;2023-07-13T12:52:54;1.38;;;1.27;;
7665;SDS011;3875;46.562;4.898;2023-07-13T12:55:46;1.98;;;1.15;;
7665;SDS011;3875;46.562;4.898;2023-07-13T12:58:39;3.63;;;1.48;;
7665;SDS011;3875;46.562;4.898;2023-07-13T13:01:09;5.97;;;1.83;;
7665;SDS011;3875;46.562;4.898;2023-07-13T13:03:45;2.67;;;1.60;;
7665;SDS011;3875;46.562;4.898;2023-07-13T13:08:48;2.13;;;1.50;;
7665;SDS011;3875;46.562;4.898;2023-07-13T13:11:15;3.20;;;1.60;;
7665;SDS011;3875;46.562;4.898;2023-07-13T13:13:42;1.52;;;1.20;;
7665;SDS011;3875;46.562;4.898;2023-07-13T13:16:14;4.20;;;1.50;;
7665;SDS011;3875;46.562;4.898;2023-07-13T13:18:50;1.63;;;1.13;;
7665;SDS011;3875;46.562;4.898;2023-07-13T13:21:17;1.45;;;1.35;;
7665;SDS011;3875;46.562;4.898;2023-07-13T13:23:44;2.78;;;1.55;;
7665;SDS011;3875;46.562;4.898;2023-07-13T13:26:11;2.28;;;1.25;;
7665;SDS011;3875;46.562;4.898;2023-07-13T13:28:44;2.80;;;1.50;;
7665;SDS011;3875;46.562;4.898;2023-07-13T13:31:11;6.50;;;1.63;;
7665;SDS011;3875;46.562;4.898;2023-07-13T13:33:40;2.30;;;1.30;;
7665;SDS011;3875;46.562;4.898;2023-07-13T13:36:21;3.65;;;1.85;;
7665;SDS011;3875;46.562;4.898;2023-07-13T13:38:48;1.55;;;1.27;;
7665;SDS011;3875;46.562;4.898;2023-07-13T13:41:15;1.88;;;1.20;;
7665;SDS011;3875;46.562;4.898;2023-07-13T13:43:41;2.10;;;1.40;;
7665;SDS011;3875;46.562;4.898;2023-07-13T13:46:19;3.08;;;1.17;;
7665;SDS011;3875;46.562;4.898;2023-07-13T13:48:47;2.25;;;1.55;;
7665;SDS011;3875;46.562;4.898;2023-07-13T13:51:16;1.42;;;1.30;;
7665;SDS011;3875;46.562;4.898;2023-07-13T13:53:42;3.47;;;1.45;;
7665;SDS011;3875;46.562;4.898;2023-07-13T13:56:08;2.15;;;1.40;;
7665;SDS011;3875;46.562;4.898;2023-07-13T13:58:34;3.75;;;1.58;;
7665;SDS011;3875;46.562;4.898;2023-07-13T14:00:59;2.53;;;1.60;;
7665;SDS011;3875;46.562;4.898;2023-07-13T14:03:26;1.50;;;1.30;;
7665;SDS011;3875;46.562;4.898;2023-07-13T14:05:53;2.88;;;1.60;;
7665;SDS011;3875;46.562;4.898;2023-07-13T14:08:21;4.43;;;1.40;;
7665;SDS011;3875;46.562;4.898;2023-07-13T14:10:47;6.22;;;1.42;;
7665;SDS011;3875;46.562;4.898;2023-07-13T14:13:17;1.98;;;1.40;;
7665;SDS011;3875;46.562;4.898;2023-07-13T14:15:56;6.00;;;1.70;;
7665;SDS011;3875;46.562;4.898;2023-07-13T14:18:22;4.03;;;1.40;;
7665;SDS011;3875;46.562;4.898;2023-07-13T14:20:48;3.35;;;1.33;;
7665;SDS011;3875;46.562;4.898;2023-07-13T14:23:17;3.83;;;1.40;;
7665;SDS011;3875;46.562;4.898;2023-07-13T14:25:43;2.00;;;1.55;;
7665;SDS011;3875;46.562;4.898;2023-07-13T14:28:23;2.05;;;1.33;;
7665;SDS011;3875;46.562;4.898;2023-07-13T14:30:51;3.83;;;1.67;;
7665;SDS011;3875;46.562;4.898;2023-07-13T14:33:18;7.10;;;1.67;;
7665;SDS011;3875;46.562;4.898;2023-07-13T14:35:44;2.10;;;1.60;;
7665;SDS011;3875;46.562;4.898;2023-07-13T14:38:10;1.95;;;1.58;;
7665;SDS011;3875;46.562;4.898;2023-07-13T14:40:38;1.40;;;1.23;;
7665;SDS011;3875;46.562;4.898;2023-07-13T14:43:07;1.55;;;1.25;;
7665;SDS011;3875;46.562;4.898;2023-07-13T14:45:51;1.88;;;1.20;;
7665;SDS011;3875;46.562;4.898;2023-07-13T14:48:18;3.80;;;1.33;;
7665;SDS011;3875;46.562;4.898;2023-07-13T14:50:46;2.78;;;1.25;;
7665;SDS011;3875;46.562;4.898;2023-07-13T14:53:13;3.88;;;2.03;;
7665;SDS011;3875;46.562;4.898;2023-07-13T14:55:39;3.00;;;1.70;;
7665;SDS011;3875;46.562;4.898;2023-07-13T14:58:04;1.92;;;1.40;;
7665;SDS011;3875;46.562;4.898;2023-07-13T15:00:31;2.80;;;1.30;;
7665;SDS011;3875;46.562;4.898;2023-07-13T15:02:58;1.20;;;1.10;;
7665;SDS011;3875;46.562;4.898;2023-07-13T15:05:26;1.67;;;1.20;;
7665;SDS011;3875;46.562;4.898;2023-07-13T15:07:56;2.75;;;1.10;;
7665;SDS011;3875;46.562;4.898;2023-07-13T15:10:24;4.95;;;1.50;;
7665;SDS011;3875;46.562;4.898;2023-07-13T15:12:52;2.35;;;1.20;;
7665;SDS011;3875;46.562;4.898;2023-07-13T15:15:18;4.93;;;1.10;;
7665;SDS011;3875;46.562;4.898;2023-07-13T15:17:45;1.63;;;1.30;;
7665;SDS011;3875;46.562;4.898;2023-07-13T15:20:17;4.10;;;1.42;;
7665;SDS011;3875;46.562;4.898;2023-07-13T15:22:46;2.72;;;1.25;;
7665;SDS011;3875;46.562;4.898;2023-07-13T15:25:20;4.63;;;1.25;;
7665;SDS011;3875;46.562;4.898;2023-07-13T15:27:50;2.83;;;1.77;;
7665;SDS011;3875;46.562;4.898;2023-07-13T15:30:16;2.17;;;1.13;;
7665;SDS011;3875;46.562;4.898;2023-07-13T15:32:42;2.65;;;1.63;;
7665;SDS011;3875;46.562;4.898;2023-07-13T15:35:16;1.10;;;1.00;;
7665;SDS011;3875;46.562;4.898;2023-07-13T15:37:49;3.13;;;1.10;;
7665;SDS011;3875;46.562;4.898;2023-07-13T15:40:15;1.55;;;1.20;;
7665;SDS011;3875;46.562;4.898;2023-07-13T15:42:41;4.95;;;1.38;;
7665;SDS011;3875;46.562;4.898;2023-07-13T15:45:19;1.80;;;1.30;;
7665;SDS011;3875;46.562;4.898;2023-07-13T15:47:46;1.67;;;1.10;;
7665;SDS011;3875;46.562;4.898;2023-07-13T15:50:14;2.67;;;1.30;;
7665;SDS011;3875;46.562;4.898;2023-07-13T15:52:40;4.13;;;1.15;;
7665;SDS011;3875;46.562;4.898;2023-07-13T15:55:10;2.55;;;1.58;;
7665;SDS011;3875;46.562;4.898;2023-07-13T15:57:38;2.13;;;1.40;;
7665;SDS011;3875;46.562;4.898;2023-07-13T16:00:12;2.28;;;1.20;;
7665;SDS011;3875;46.562;4.898;2023-07-13T16:02:47;1.75;;;1.38;;
7665;SDS011;3875;46.562;4.898;2023-07-13T16:05:13;1.70;;;1.30;;
7665;SDS011;3875;46.562;4.898;2023-07-13T16:07:41;2.10;;;1.27;;
7665;SDS011;3875;46.562;4.898;2023-07-13T16:10:17;2.47;;;1.27;;
7665;SDS011;3875;46.562;4.898;2023-07-13T16:13:16;1.33;;;1.13;;